Terminal Aerodrome Forecast
Issued by NWS

Home | Current Version | Previous Version | Text Only | Print | Product List | Glossary On
Versions: 1 2 3 4 5 6 7 8 9 10 11 12 13 14 15 16 17 18 19
000
FTUS45 KFGZ 031733
TAFSEZ
TAF
KSEZ 031733Z 0318/0418 18007KT P6SM SCT090 BKN120
     FM032130 22006KT P6SM VCTS SCT090CB BKN120
      TEMPO 0323/0403 VRB20G30KT 4SM TSRA BKN070CB
     FM040300 04007KT P6SM SCT070 BKN120=

USA.gov is the U.S. government's official web portal to all federal, state and local government web resources and services.